Time;durP1;ratioP1;P1;durP2;ratioP2;P2;SDS_P1;SDS_P2;PMS_P1;PMS_P2;Temp;Humidity;BMP_temperature;BMP_pressure;BME280_temperature;BME280_humidity;BME280_pressure;Samples;Min_cycle;Max_cycle;Signal;HPM_P1;HPM_P2
2024/04/01 00:00:48;;;;;;;;;;;11.30;99.90;;;;;;2088688;28;19984;-73
2024/04/01 00:01:48;;;;;;;;;;;11.30;99.90;;;;;;2085290;28;20492;-76
2024/04/01 00:02:48;;;;;;;;;;;11.30;99.90;;;;;;2101171;28;19920;-75
2024/04/01 00:03:49;;;;;;;;;;;11.40;99.90;;;;;;2098485;28;19916;-74
2024/04/01 00:04:49;;;;;;;;;;;11.40;99.90;;;;;;2097367;28;20400;-74
2024/04/01 00:05:53;;;;;;;;;;;11.30;99.90;;;;;;2091787;28;20358;-75
2024/04/01 00:06:54;;;;;;;;;;;11.40;99.90;;;;;;2090461;28;19932;-75
2024/04/01 00:07:55;;;;;;;;;;;11.30;99.90;;;;;;2080446;28;20028;-75
2024/04/01 00:08:55;;;;;;;;;;;11.30;99.90;;;;;;2090736;28;19947;-75
2024/04/01 00:09:56;;;;;;;;;;;11.20;99.90;;;;;;2099852;28;19912;-76
2024/04/01 00:10:57;;;;;;;;;;;11.20;99.90;;;;;;2088511;28;19964;-74
2024/04/01 00:11:57;;;;;;;;;;;11.20;99.90;;;;;;2090805;28;19924;-75
2024/04/01 00:12:59;;;;;;;;;;;11.10;99.90;;;;;;2090717;28;19920;-74
2024/04/01 00:14:00;;;;;;;;;;;11.10;99.90;;;;;;2091162;28;19916;-73
2024/04/01 00:15:01;;;;;;;;;;;11.10;99.90;;;;;;2087495;28;19996;-76
2024/04/01 00:16:01;;;;;;;;;;;11.00;99.90;;;;;;2084015;28;19912;-75
2024/04/01 00:17:02;;;;;;;;;;;11.10;99.90;;;;;;2091331;28;20374;-74
2024/04/01 00:18:02;;;;;;;;;;;11.10;99.90;;;;;;2099572;28;19966;-74
2024/04/01 00:19:04;;;;;;;;;;;11.10;99.90;;;;;;2098645;28;20366;-75
2024/04/01 00:20:05;;;;;;;;;;;11.10;99.90;;;;;;2102478;28;19916;-75
2024/04/01 00:21:06;;;;;;;;;;;11.10;99.90;;;;;;2102588;28;20167;-75
2024/04/01 00:22:06;;;;;;;;;;;11.10;99.90;;;;;;2098682;28;20011;-76
2024/04/01 00:23:07;;;;;;;;;;;11.10;99.90;;;;;;2099718;28;20699;-75
2024/04/01 00:24:07;;;;;;;;;;;11.10;99.90;;;;;;2104343;28;19927;-75
2024/04/01 00:25:08;;;;;;;;;;;11.10;99.90;;;;;;2102231;28;20450;-75
2024/04/01 00:26:09;;;;;;;;;;;11.10;99.90;;;;;;2092721;28;20369;-75
2024/04/01 00:27:10;;;;;;;;;;;11.00;99.90;;;;;;2092942;28;20015;-75
2024/04/01 00:28:11;;;;;;;;;;;11.00;99.90;;;;;;2101338;28;19918;-75
2024/04/01 00:29:11;;;;;;;;;;;11.10;99.90;;;;;;2092133;28;19975;-75
2024/04/01 00:30:12;;;;;;;;;;;11.10;99.90;;;;;;2088475;28;19912;-75
2024/04/01 00:31:12;;;;;;;;;;;11.00;99.90;;;;;;2094999;28;20305;-75
2024/04/01 00:32:13;;;;;;;;;;;10.90;99.90;;;;;;2100810;28;19969;-76
2024/04/01 00:33:13;;;;;;;;;;;10.90;99.90;;;;;;2097715;28;19920;-75
2024/04/01 00:34:13;;;;;;;;;;;10.90;99.90;;;;;;2093887;28;19917;-75
2024/04/01 00:35:15;;;;;;;;;;;10.90;99.90;;;;;;2101133;28;20301;-75
2024/04/01 00:36:15;;;;;;;;;;;10.90;99.90;;;;;;2097512;28;19919;-75
2024/04/01 00:37:16;;;;;;;;;;;10.90;99.90;;;;;;2088347;28;19976;-74
2024/04/01 00:38:16;;;;;;;;;;;11.00;99.90;;;;;;2089023;28;20363;-75
2024/04/01 00:39:17;;;;;;;;;;;10.90;99.90;;;;;;2092228;28;19916;-75
2024/04/01 00:40:17;;;;;;;;;;;10.90;99.90;;;;;;2088447;28;19923;-75
2024/04/01 00:41:18;;;;;;;;;;;10.90;99.90;;;;;;2088454;28;19917;-75
2024/04/01 00:42:18;;;;;;;;;;;10.90;99.90;;;;;;2101447;28;19963;-75
2024/04/01 00:43:19;;;;;;;;;;;10.90;99.90;;;;;;2101020;28;19928;-74
2024/04/01 00:44:19;;;;;;;;;;;10.90;99.90;;;;;;2104390;28;19916;-75
2024/04/01 00:45:20;;;;;;;;;;;10.90;99.90;;;;;;2101432;28;20006;-74
2024/04/01 00:46:20;;;;;;;;;;;10.90;99.90;;;;;;2097634;28;19912;-75
2024/04/01 00:47:21;;;;;;;;;;;10.90;99.90;;;;;;2097377;28;19966;-75
2024/04/01 00:48:21;;;;;;;;;;;10.80;99.90;;;;;;2100700;28;20017;-75
2024/04/01 00:49:22;;;;;;;;;;;10.80;99.90;;;;;;2097307;28;19958;-75
2024/04/01 00:50:24;;;;;;;;;;;10.70;99.90;;;;;;2087832;28;20414;-75
2024/04/01 00:51:25;;;;;;;;;;;10.70;99.90;;;;;;2085012;28;19920;-77
2024/04/01 00:52:28;;;;;;;;;;;10.70;99.90;;;;;;2092448;28;20347;-74
2024/04/01 00:53:29;;;;;;;;;;;10.70;99.90;;;;;;2101230;28;19912;-73
2024/04/01 00:54:29;;;;;;;;;;;10.70;99.90;;;;;;2097331;28;19917;-74
2024/04/01 00:55:31;;;;;;;;;;;10.70;99.90;;;;;;2091557;28;19916;-73
2024/04/01 00:56:32;;;;;;;;;;;10.70;99.90;;;;;;2092486;28;19912;-73
2024/04/01 00:57:33;;;;;;;;;;;10.70;99.90;;;;;;2100652;28;19988;-74
2024/04/01 00:58:33;;;;;;;;;;;10.70;99.90;;;;;;2091054;28;19924;-74
2024/04/01 00:59:34;;;;;;;;;;;10.70;99.90;;;;;;2089719;28;19916;-74
2024/04/01 01:00:34;;;;;;;;;;;10.70;99.90;;;;;;2097263;28;20394;-74
2024/04/01 01:01:35;;;;;;;;;;;10.70;99.90;;;;;;2083561;28;20488;-74
2024/04/01 01:02:36;;;;;;;;;;;10.80;99.90;;;;;;2088302;28;19942;-74
2024/04/01 01:03:36;;;;;;;;;;;10.70;99.90;;;;;;2096952;28;20480;-74
2024/04/01 01:04:37;;;;;;;;;;;10.70;99.90;;;;;;2099385;28;19998;-74
2024/04/01 01:05:38;;;;;;;;;;;10.80;99.90;;;;;;2098984;28;19938;-74
2024/04/01 01:06:38;;;;;;;;;;;10.70;99.90;;;;;;2088182;28;20350;-74
2024/04/01 01:07:39;;;;;;;;;;;10.70;99.90;;;;;;2092053;28;19948;-76
2024/04/01 01:08:39;;;;;;;;;;;10.70;99.90;;;;;;2101289;28;20174;-74
2024/04/01 01:09:40;;;;;;;;;;;10.70;99.90;;;;;;2099911;28;20165;-74
2024/04/01 01:10:41;;;;;;;;;;;10.70;99.90;;;;;;2090905;28;19912;-74
2024/04/01 01:11:41;;;;;;;;;;;10.70;99.90;;;;;;2090470;28;19916;-74
2024/04/01 01:12:42;;;;;;;;;;;10.70;99.90;;;;;;2101194;28;20396;-74
2024/04/01 01:13:42;;;;;;;;;;;10.70;99.90;;;;;;2099171;28;19963;-74
2024/04/01 01:14:43;;;;;;;;;;;10.70;99.90;;;;;;2098924;28;19981;-73
2024/04/01 01:15:44;;;;;;;;;;;10.70;99.90;;;;;;2097065;28;19917;-74
2024/04/01 01:16:44;;;;;;;;;;;10.80;99.90;;;;;;2089622;28;20215;-74
2024/04/01 01:17:47;;;;;;;;;;;10.80;99.90;;;;;;2090430;28;19974;-74
2024/04/01 01:18:48;;;;;;;;;;;10.80;99.90;;;;;;2097297;28;20347;-74
2024/04/01 01:19:49;;;;;;;;;;;10.80;99.90;;;;;;2100617;28;20297;-74
2024/04/01 01:20:49;;;;;;;;;;;10.80;99.90;;;;;;2101394;28;20014;-73
2024/04/01 01:21:49;;;;;;;;;;;10.80;99.90;;;;;;2096867;28;19934;-73
2024/04/01 01:22:50;;;;;;;;;;;10.90;99.90;;;;;;2097962;28;19924;-73
2024/04/01 01:23:50;;;;;;;;;;;10.90;99.90;;;;;;2100216;28;20366;-74
2024/04/01 01:24:51;;;;;;;;;;;11.00;99.90;;;;;;2090930;28;19934;-74
2024/04/01 01:25:52;;;;;;;;;;;11.00;99.90;;;;;;2080604;28;19913;-74
2024/04/01 01:26:52;;;;;;;;;;;11.00;99.90;;;;;;2083079;28;20348;-75
2024/04/01 01:27:52;;;;;;;;;;;10.90;99.90;;;;;;2097452;28;19912;-76
2024/04/01 01:28:53;;;;;;;;;;;10.90;99.90;;;;;;2097419;28;19912;-75
2024/04/01 01:29:54;;;;;;;;;;;10.90;99.90;;;;;;2100166;28;19981;-75
2024/04/01 01:30:54;;;;;;;;;;;10.90;99.90;;;;;;2094805;28;19916;-75
2024/04/01 01:32:00;;;;;;;;;;;10.90;99.90;;;;;;2086047;28;19956;-75
2024/04/01 01:33:02;;;;;;;;;;;10.90;99.90;;;;;;2097636;28;19916;-75
2024/04/01 01:34:02;;;;;;;;;;;10.90;99.90;;;;;;2096996;28;19912;-74
2024/04/01 01:35:03;;;;;;;;;;;10.90;99.90;;;;;;2100196;28;20026;-76
2024/04/01 01:36:04;;;;;;;;;;;10.90;99.90;;;;;;2092121;28;19923;-76
2024/04/01 01:37:04;;;;;;;;;;;10.90;99.90;;;;;;2092096;28;20266;-75
2024/04/01 01:38:05;;;;;;;;;;;10.90;99.90;;;;;;2100420;28;19916;-74
2024/04/01 01:39:05;;;;;;;;;;;10.90;99.90;;;;;;2084441;28;20294;-74
2024/04/01 01:40:08;;;;;;;;;;;10.80;99.90;;;;;;2088333;28;20380;-74
2024/04/01 01:41:09;;;;;;;;;;;10.80;99.90;;;;;;2091801;28;19920;-74
2024/04/01 01:42:09;;;;;;;;;;;10.80;99.90;;;;;;2089178;28;19921;-74
2024/04/01 01:43:10;;;;;;;;;;;10.80;99.90;;;;;;2080000;28;19921;-75
2024/04/01 01:44:10;;;;;;;;;;;10.80;99.90;;;;;;2092271;28;19946;-75
2024/04/01 01:45:11;;;;;;;;;;;10.70;99.90;;;;;;2092417;28;20328;-75
2024/04/01 01:46:11;;;;;;;;;;;10.70;99.90;;;;;;2100686;28;19912;-74
2024/04/01 01:47:12;;;;;;;;;;;10.70;99.90;;;;;;2099814;28;20015;-75
2024/04/01 01:48:12;;;;;;;;;;;10.80;99.90;;;;;;2098602;28;19912;-75
2024/04/01 01:49:13;;;;;;;;;;;10.70;99.90;;;;;;2101299;28;19923;-75
2024/04/01 01:50:13;;;;;;;;;;;10.80;99.90;;;;;;2097268;28;20392;-75
2024/04/01 01:51:14;;;;;;;;;;;10.80;99.90;;;;;;2095624;28;19916;-74
2024/04/01 01:52:14;;;;;;;;;;;10.80;99.90;;;;;;2099032;28;19922;-75
2024/04/01 01:53:15;;;;;;;;;;;10.80;99.90;;;;;;2099389;28;20011;-75
2024/04/01 01:54:16;;;;;;;;;;;10.70;99.90;;;;;;2097345;28;19923;-74
2024/04/01 01:55:16;;;;;;;;;;;10.80;99.90;;;;;;2099987;28;19916;-74
2024/04/01 01:56:18;;;;;;;;;;;10.80;99.90;;;;;;2098275;28;20507;-74
2024/04/01 01:57:19;;;;;;;;;;;10.80;99.90;;;;;;2087775;28;19919;-76
2024/04/01 01:58:19;;;;;;;;;;;10.80;99.90;;;;;;2089779;28;19923;-74
2024/04/01 01:59:20;;;;;;;;;;;10.80;99.90;;;;;;2090762;28;20254;-75
2024/04/01 02:00:20;;;;;;;;;;;10.80;99.90;;;;;;2087840;28;19924;-75
2024/04/01 02:01:21;;;;;;;;;;;10.80;99.90;;;;;;2093582;28;20164;-75
2024/04/01 02:02:22;;;;;;;;;;;10.80;99.90;;;;;;2086602;28;20498;-75
2024/04/01 02:03:22;;;;;;;;;;;10.80;99.90;;;;;;2083752;28;19998;-75
2024/04/01 02:04:23;;;;;;;;;;;10.80;99.90;;;;;;2092054;28;19952;-75
2024/04/01 02:05:23;;;;;;;;;;;10.90;99.90;;;;;;2100213;28;19955;-75
2024/04/01 02:06:24;;;;;;;;;;;10.90;99.90;;;;;;2087728;28;19923;-75
2024/04/01 02:07:25;;;;;;;;;;;10.90;99.90;;;;;;2087737;28;19917;-75
2024/04/01 02:08:25;;;;;;;;;;;10.90;99.90;;;;;;2089766;28;19999;-75
2024/04/01 02:09:26;;;;;;;;;;;10.90;99.90;;;;;;2088051;28;20317;-74
2024/04/01 02:10:26;;;;;;;;;;;11.00;99.90;;;;;;2076591;28;19913;-74
2024/04/01 02:11:27;;;;;;;;;;;11.00;99.90;;;;;;2077607;28;19912;-75
2024/04/01 02:12:27;;;;;;;;;;;11.00;99.90;;;;;;2099476;28;20520;-75
2024/04/01 02:13:28;;;;;;;;;;;11.00;99.90;;;;;;2100214;28;19951;-75
2024/04/01 02:14:29;;;;;;;;;;;10.90;99.90;;;;;;2084005;28;19917;-75
2024/04/01 02:15:30;;;;;;;;;;;11.00;99.90;;;;;;2084073;28;19917;-75
2024/04/01 02:16:30;;;;;;;;;;;10.90;99.90;;;;;;2096542;28;19920;-76
2024/04/01 02:17:31;;;;;;;;;;;10.90;99.90;;;;;;2097474;28;19940;-75
2024/04/01 02:18:31;;;;;;;;;;;10.90;99.90;;;;;;2100078;28;19966;-75
2024/04/01 02:19:32;;;;;;;;;;;10.90;99.90;;;;;;2091540;28;20402;-74
2024/04/01 02:20:35;;;;;;;;;;;10.90;99.90;;;;;;2086163;28;19912;-75
2024/04/01 02:21:37;;;;;;;;;;;10.90;99.90;;;;;;2096423;28;20104;-75
2024/04/01 02:22:37;;;;;;;;;;;10.90;99.90;;;;;;2096668;28;19985;-75
2024/04/01 02:23:38;;;;;;;;;;;10.90;99.90;;;;;;2096786;28;20354;-75
2024/04/01 02:24:39;;;;;;;;;;;10.90;99.90;;;;;;2096303;28;19948;-75
2024/04/01 02:25:39;;;;;;;;;;;11.00;99.90;;;;;;2096559;28;19912;-75
2024/04/01 02:26:40;;;;;;;;;;;11.00;99.90;;;;;;2091269;28;19917;-75
2024/04/01 02:27:42;;;;;;;;;;;11.00;99.90;;;;;;2087165;28;21154;-74
2024/04/01 02:28:42;;;;;;;;;;;11.00;99.90;;;;;;2092362;28;20007;-76
2024/04/01 02:29:43;;;;;;;;;;;11.00;99.90;;;;;;2096675;28;19912;-76
2024/04/01 02:30:43;;;;;;;;;;;11.00;99.90;;;;;;2083401;28;20572;-75
2024/04/01 02:31:44;;;;;;;;;;;11.00;99.90;;;;;;2085766;28;19919;-75
2024/04/01 02:32:44;;;;;;;;;;;11.00;99.90;;;;;;2107391;28;20440;-75
2024/04/01 02:33:45;;;;;;;;;;;11.00;99.90;;;;;;2100711;28;20301;-75
2024/04/01 02:34:45;;;;;;;;;;;11.00;99.90;;;;;;2096626;28;19959;-76
2024/04/01 02:35:46;;;;;;;;;;;11.10;99.90;;;;;;2090374;28;20311;-75
2024/04/01 02:36:46;;;;;;;;;;;11.10;99.90;;;;;;2088935;28;19913;-74
2024/04/01 02:37:47;;;;;;;;;;;11.10;99.90;;;;;;2087671;28;19999;-73
2024/04/01 02:38:48;;;;;;;;;;;11.10;99.90;;;;;;2090337;28;19964;-75
2024/04/01 02:39:48;;;;;;;;;;;11.10;99.90;;;;;;2089417;28;19969;-75
2024/04/01 02:40:49;;;;;;;;;;;11.20;99.90;;;;;;2087356;28;19982;-75
2024/04/01 02:41:50;;;;;;;;;;;11.20;99.90;;;;;;2083340;28;19917;-75
2024/04/01 02:42:50;;;;;;;;;;;11.30;99.90;;;;;;2089548;28;19935;-76
2024/04/01 02:43:51;;;;;;;;;;;11.30;99.90;;;;;;2096686;28;19923;-75
2024/04/01 02:44:51;;;;;;;;;;;11.30;99.90;;;;;;2097789;28;20551;-73
2024/04/01 02:45:52;;;;;;;;;;;11.40;99.90;;;;;;2087208;28;20528;-74
2024/04/01 02:46:53;;;;;;;;;;;11.40;99.90;;;;;;2091572;28;20165;-75
2024/04/01 02:47:54;;;;;;;;;;;11.40;99.90;;;;;;2091316;28;19912;-76
2024/04/01 02:48:54;;;;;;;;;;;11.50;99.90;;;;;;2087655;28;19943;-76
2024/04/01 02:49:55;;;;;;;;;;;11.50;99.90;;;;;;2098825;28;19912;-76
2024/04/01 02:50:55;;;;;;;;;;;11.60;99.90;;;;;;2098219;28;20026;-76
2024/04/01 02:51:56;;;;;;;;;;;11.70;99.90;;;;;;2096848;28;19916;-76
2024/04/01 02:52:58;;;;;;;;;;;11.80;99.90;;;;;;2090098;28;19920;-74
2024/04/01 02:53:58;;;;;;;;;;;11.90;99.90;;;;;;2081724;28;20513;-75
2024/04/01 02:54:58;;;;;;;;;;;11.90;99.90;;;;;;2079154;28;19963;-74
2024/04/01 02:55:59;;;;;;;;;;;11.90;99.90;;;;;;2089309;28;19917;-75
2024/04/01 02:56:59;;;;;;;;;;;12.00;99.90;;;;;;2098855;28;19912;-76
2024/04/01 02:58:00;;;;;;;;;;;12.00;99.90;;;;;;2087590;28;19916;-74
2024/04/01 02:59:04;;;;;;;;;;;12.00;99.90;;;;;;2089059;28;20386;-75
2024/04/01 03:00:05;;;;;;;;;;;12.00;99.90;;;;;;2099748;28;19927;-76
2024/04/01 03:01:06;;;;;;;;;;;12.00;99.90;;;;;;2096541;28;19916;-76
2024/04/01 03:02:08;;;;;;;;;;;12.00;99.90;;;;;;2096096;28;19923;-75
2024/04/01 03:03:08;;;;;;;;;;;12.00;99.90;;;;;;2096303;28;19928;-75
2024/04/01 03:04:09;;;;;;;;;;;12.00;99.90;;;;;;2097776;28;20326;-75
2024/04/01 03:05:09;;;;;;;;;;;12.00;99.90;;;;;;2106819;28;20124;-75
2024/04/01 03:06:10;;;;;;;;;;;12.10;99.90;;;;;;2103340;28;19912;-76
2024/04/01 03:07:10;;;;;;;;;;;12.10;99.90;;;;;;2091469;28;20423;-75
2024/04/01 03:08:11;;;;;;;;;;;12.20;99.90;;;;;;2091964;28;19913;-75
2024/04/01 03:09:11;;;;;;;;;;;12.30;99.90;;;;;;2087363;28;19916;-76
2024/04/01 03:10:12;;;;;;;;;;;12.20;99.90;;;;;;2088301;28;20011;-75
2024/04/01 03:11:13;;;;;;;;;;;12.30;99.90;;;;;;2091013;28;19948;-75
2024/04/01 03:12:14;;;;;;;;;;;12.30;99.90;;;;;;2088137;28;20069;-74
2024/04/01 03:13:14;;;;;;;;;;;12.40;99.90;;;;;;2080831;28;20410;-75
2024/04/01 03:14:15;;;;;;;;;;;12.40;99.90;;;;;;2093286;28;19908;-75
2024/04/01 03:15:18;;;;;;;;;;;12.40;99.90;;;;;;2098491;28;19923;-75
2024/04/01 03:16:19;;;;;;;;;;;12.40;99.90;;;;;;2097959;28;19924;-76
2024/04/01 03:17:19;;;;;;;;;;;12.40;99.90;;;;;;2101861;28;19916;-75
2024/04/01 03:18:20;;;;;;;;;;;12.40;99.90;;;;;;2089468;28;19912;-74
2024/04/01 03:19:21;;;;;;;;;;;12.40;99.90;;;;;;2088455;28;19924;-75
2024/04/01 03:20:22;;;;;;;;;;;12.50;99.90;;;;;;2091875;28;19925;-75
2024/04/01 03:21:23;;;;;;;;;;;12.50;99.90;;;;;;2088878;28;19960;-76
2024/04/01 03:22:25;;;;;;;;;;;12.50;99.90;;;;;;2089135;28;19951;-73
2024/04/01 03:23:25;;;;;;;;;;;12.60;99.90;;;;;;2089396;28;20313;-75
2024/04/01 03:24:26;;;;;;;;;;;12.70;99.90;;;;;;2089159;28;19952;-74
2024/04/01 03:25:26;;;;;;;;;;;12.70;99.90;;;;;;2092852;28;20049;-73
2024/04/01 03:26:26;;;;;;;;;;;12.70;99.90;;;;;;2089361;28;19916;-75
2024/04/01 03:27:27;;;;;;;;;;;12.70;99.90;;;;;;2098041;28;20282;-75
2024/04/01 03:28:27;;;;;;;;;;;12.70;99.90;;;;;;2092361;28;19913;-76
2024/04/01 03:29:28;;;;;;;;;;;12.70;99.90;;;;;;2089786;28;19985;-76
2024/04/01 03:30:28;;;;;;;;;;;12.70;99.90;;;;;;2089104;28;19944;-70
2024/04/01 03:31:29;;;;;;;;;;;12.70;99.90;;;;;;2087757;28;19912;-70
2024/04/01 03:32:29;;;;;;;;;;;12.70;99.90;;;;;;2098898;28;19931;-70
2024/04/01 03:33:30;;;;;;;;;;;12.70;99.90;;;;;;2088923;28;20014;-70
2024/04/01 03:34:30;;;;;;;;;;;12.70;99.90;;;;;;2092419;28;19928;-69
2024/04/01 03:35:31;;;;;;;;;;;12.70;99.90;;;;;;2090158;28;19916;-71
2024/04/01 03:36:31;;;;;;;;;;;12.70;99.90;;;;;;2081009;28;19996;-70
2024/04/01 03:37:32;;;;;;;;;;;12.70;99.90;;;;;;2091728;28;19912;-70
2024/04/01 03:38:32;;;;;;;;;;;12.70;99.90;;;;;;2098832;28;19981;-70
2024/04/01 03:39:33;;;;;;;;;;;12.70;99.90;;;;;;2098604;28;19919;-69
2024/04/01 03:40:37;;;;;;;;;;;12.70;99.90;;;;;;2089020;28;20269;-74
2024/04/01 03:41:37;;;;;;;;;;;12.70;99.90;;;;;;2092298;28;19920;-73
2024/04/01 03:42:38;;;;;;;;;;;12.70;99.90;;;;;;2102544;28;19934;-74
2024/04/01 03:43:38;;;;;;;;;;;12.80;99.90;;;;;;2105594;28;19916;-72
2024/04/01 03:44:39;;;;;;;;;;;12.80;99.90;;;;;;2096253;28;20297;-74
2024/04/01 03:45:40;;;;;;;;;;;12.90;99.90;;;;;;2086320;28;19927;-72
2024/04/01 03:46:41;;;;;;;;;;;12.80;99.90;;;;;;2089220;28;20012;-72
2024/04/01 03:47:42;;;;;;;;;;;12.90;99.90;;;;;;2099990;28;19923;-73
2024/04/01 03:48:42;;;;;;;;;;;12.90;99.90;;;;;;2107545;28;19911;-73
2024/04/01 03:49:42;;;;;;;;;;;12.80;99.90;;;;;;2094774;28;19913;-73
2024/04/01 03:50:43;;;;;;;;;;;12.80;99.90;;;;;;2090444;28;19935;-73
2024/04/01 03:51:43;;;;;;;;;;;12.80;99.90;;;;;;2100143;28;19916;-73
2024/04/01 03:52:45;;;;;;;;;;;12.80;99.90;;;;;;2097759;28;19944;-73
2024/04/01 03:53:45;;;;;;;;;;;12.80;99.90;;;;;;2099482;28;20325;-73
2024/04/01 03:54:46;;;;;;;;;;;12.80;99.90;;;;;;2100404;28;19959;-73
2024/04/01 03:55:46;;;;;;;;;;;12.80;99.90;;;;;;2097959;28;20301;-73
2024/04/01 03:56:50;;;;;;;;;;;12.80;99.90;;;;;;2099495;28;19973;-75
2024/04/01 03:57:50;;;;;;;;;;;12.70;99.90;;;;;;2105464;28;19912;-72
2024/04/01 03:58:51;;;;;;;;;;;12.70;99.90;;;;;;2103989;28;20280;-73
2024/04/01 03:59:51;;;;;;;;;;;12.70;99.90;;;;;;2088811;28;19931;-73
2024/04/01 04:00:52;;;;;;;;;;;12.70;99.90;;;;;;2094213;28;20816;-72
2024/04/01 04:01:52;;;;;;;;;;;12.70;99.90;;;;;;2101224;28;20924;-73
2024/04/01 04:02:53;;;;;;;;;;;12.80;99.90;;;;;;2097541;28;19920;-72
2024/04/01 04:03:53;;;;;;;;;;;12.80;99.90;;;;;;2094721;28;19920;-73
2024/04/01 04:04:54;;;;;;;;;;;12.80;99.90;;;;;;2096375;28;19976;-72
2024/04/01 04:05:54;;;;;;;;;;;12.80;99.90;;;;;;2097760;28;19932;-73
2024/04/01 04:06:55;;;;;;;;;;;12.80;99.90;;;;;;2089563;28;20291;-74
2024/04/01 04:07:55;;;;;;;;;;;12.70;99.90;;;;;;2091719;28;19951;-72
2024/04/01 04:08:57;;;;;;;;;;;12.70;99.90;;;;;;2092080;28;20347;-72
2024/04/01 04:09:57;;;;;;;;;;;12.70;99.90;;;;;;2089308;28;19917;-72
2024/04/01 04:10:58;;;;;;;;;;;12.70;99.90;;;;;;2098193;28;19927;-73
2024/04/01 04:11:58;;;;;;;;;;;12.60;99.90;;;;;;2101787;28;19981;-73
2024/04/01 04:12:59;;;;;;;;;;;12.60;99.90;;;;;;2096100;28;19912;-72
2024/04/01 04:14:05;;;;;;;;;;;12.60;99.90;;;;;;2084111;28;20406;-72
2024/04/01 04:15:07;;;;;;;;;;;12.60;99.90;;;;;;2081356;28;19975;-72
2024/04/01 04:16:07;;;;;;;;;;;12.60;99.90;;;;;;2081952;28;19948;-73
2024/04/01 04:17:08;;;;;;;;;;;12.60;99.90;;;;;;2092251;28;20445;-72
2024/04/01 04:18:08;;;;;;;;;;;12.60;99.90;;;;;;2088440;28;19920;-73
2024/04/01 04:19:09;;;;;;;;;;;12.70;99.90;;;;;;2092504;28;19921;-73
2024/04/01 04:20:09;;;;;;;;;;;12.80;99.90;;;;;;2097926;28;19994;-73
2024/04/01 04:21:10;;;;;;;;;;;12.80;99.90;;;;;;2097639;28;19959;-73
2024/04/01 04:22:10;;;;;;;;;;;12.80;99.90;;;;;;2101450;28;20225;-72
2024/04/01 04:23:11;;;;;;;;;;;12.90;99.90;;;;;;2101221;28;19943;-73
2024/04/01 04:24:13;;;;;;;;;;;13.00;99.90;;;;;;2096168;28;19924;-73
2024/04/01 04:25:13;;;;;;;;;;;13.00;99.90;;;;;;2100856;28;20340;-73
2024/04/01 04:26:14;;;;;;;;;;;13.00;99.90;;;;;;2100946;28;19920;-74
2024/04/01 04:27:14;;;;;;;;;;;13.00;99.90;;;;;;2101061;28;20291;-74
2024/04/01 04:28:15;;;;;;;;;;;13.00;99.90;;;;;;2100276;28;20366;-73
2024/04/01 04:29:15;;;;;;;;;;;13.00;99.90;;;;;;2098743;28;19923;-72
2024/04/01 04:30:16;;;;;;;;;;;13.00;99.90;;;;;;2097311;28;19924;-73
2024/04/01 04:31:16;;;;;;;;;;;13.00;99.90;;;;;;2087245;28;19916;-74
2024/04/01 04:32:19;;;;;;;;;;;13.00;99.90;;;;;;2090077;28;19921;-72
2024/04/01 04:33:19;;;;;;;;;;;13.00;99.90;;;;;;2097069;28;20436;-72
2024/04/01 04:34:21;;;;;;;;;;;13.00;99.90;;;;;;2096764;28;19949;-72
2024/04/01 04:35:21;;;;;;;;;;;13.00;99.90;;;;;;2088563;28;19920;-73
2024/04/01 04:36:22;;;;;;;;;;;13.00;99.90;;;;;;2091224;28;19956;-71
2024/04/01 04:37:22;;;;;;;;;;;13.00;99.90;;;;;;2099136;28;20067;-74
2024/04/01 04:38:23;;;;;;;;;;;13.00;99.90;;;;;;2097196;28;19912;-73
2024/04/01 04:39:26;;;;;;;;;;;13.00;99.90;;;;;;2100138;28;19912;-74
2024/04/01 04:40:27;;;;;;;;;;;13.00;99.90;;;;;;2099249;28;19916;-73
2024/04/01 04:41:29;;;;;;;;;;;13.00;99.90;;;;;;2097478;28;19923;-73
2024/04/01 04:42:29;;;;;;;;;;;13.00;99.90;;;;;;2101460;28;19959;-72
2024/04/01 04:43:30;;;;;;;;;;;13.10;99.90;;;;;;2101403;28;19916;-73
2024/04/01 04:44:31;;;;;;;;;;;13.10;99.90;;;;;;2097336;28;19916;-74
2024/04/01 04:45:31;;;;;;;;;;;13.10;99.90;;;;;;2098925;28;19992;-72
2024/04/01 04:46:32;;;;;;;;;;;13.10;99.90;;;;;;2100402;28;23077;-72
2024/04/01 04:47:32;;;;;;;;;;;13.10;99.90;;;;;;2097447;28;19927;-72
2024/04/01 04:48:33;;;;;;;;;;;13.10;99.90;;;;;;2089566;28;19970;-73
2024/04/01 04:49:33;;;;;;;;;;;13.10;99.90;;;;;;2091845;28;20335;-72
2024/04/01 04:50:34;;;;;;;;;;;13.20;99.90;;;;;;2088600;28;19955;-74
2024/04/01 04:51:34;;;;;;;;;;;13.20;99.90;;;;;;2090112;28;19916;-73
2024/04/01 04:52:37;;;;;;;;;;;13.10;99.90;;;;;;2091534;28;20427;-74
2024/04/01 04:53:38;;;;;;;;;;;13.20;99.90;;;;;;2087824;28;19917;-74
2024/04/01 04:54:38;;;;;;;;;;;13.20;99.90;;;;;;2089135;28;19920;-72
2024/04/01 04:55:40;;;;;;;;;;;13.20;99.90;;;;;;2090103;28;19917;-72
2024/04/01 04:56:40;;;;;;;;;;;13.20;99.90;;;;;;2100843;28;19919;-73
2024/04/01 04:57:41;;;;;;;;;;;13.30;99.90;;;;;;2097617;28;20001;-73
2024/04/01 04:58:41;;;;;;;;;;;13.40;99.90;;;;;;2098349;28;20515;-73
2024/04/01 04:59:42;;;;;;;;;;;13.40;99.90;;;;;;2101018;28;20038;-73
2024/04/01 05:00:42;;;;;;;;;;;13.40;99.90;;;;;;2097956;28;19970;-77
2024/04/01 05:01:42;;;;;;;;;;;13.40;99.90;;;;;;2100422;28;19994;-74
2024/04/01 05:02:43;;;;;;;;;;;13.30;99.90;;;;;;2101563;28;19912;-74
2024/04/01 05:03:44;;;;;;;;;;;13.30;99.90;;;;;;2088750;28;19916;-74
2024/04/01 05:04:45;;;;;;;;;;;13.30;99.90;;;;;;2088732;28;19928;-73
2024/04/01 05:05:45;;;;;;;;;;;13.40;99.90;;;;;;2101283;28;19920;-74
2024/04/01 05:06:46;;;;;;;;;;;13.40;99.90;;;;;;2087928;28;20239;-74
2024/04/01 05:07:48;;;;;;;;;;;13.40;99.90;;;;;;2088724;28;19956;-73
2024/04/01 05:08:48;;;;;;;;;;;13.40;99.90;;;;;;2088551;28;20612;-74
2024/04/01 05:09:49;;;;;;;;;;;13.30;99.90;;;;;;2090307;28;19917;-73
2024/04/01 05:10:50;;;;;;;;;;;13.30;99.90;;;;;;2088033;28;20326;-73
2024/04/01 05:11:50;;;;;;;;;;;13.30;99.90;;;;;;2089915;28;19999;-73
2024/04/01 05:12:51;;;;;;;;;;;13.30;99.90;;;;;;2097350;28;19916;-73
2024/04/01 05:13:51;;;;;;;;;;;13.30;99.90;;;;;;2100951;28;19919;-73
2024/04/01 05:14:52;;;;;;;;;;;13.30;99.90;;;;;;2087840;28;20625;-73
2024/04/01 05:15:53;;;;;;;;;;;13.20;99.90;;;;;;2084116;28;20003;-73
2024/04/01 05:16:53;;;;;;;;;;;13.20;99.90;;;;;;2097108;28;19912;-73
2024/04/01 05:17:54;;;;;;;;;;;13.30;99.90;;;;;;2097360;28;20011;-73
2024/04/01 05:18:56;;;;;;;;;;;13.20;99.90;;;;;;2097149;28;20395;-74
2024/04/01 05:19:58;;;;;;;;;;;13.20;99.90;;;;;;2097090;28;19917;-72
2024/04/01 05:20:58;;;;;;;;;;;13.20;99.90;;;;;;2093942;28;19908;-74
2024/04/01 05:21:59;;;;;;;;;;;13.20;99.90;;;;;;2088133;28;20498;-73
2024/04/01 05:22:59;;;;;;;;;;;13.20;99.90;;;;;;2091423;28;19944;-74
2024/04/01 05:24:00;;;;;;;;;;;13.20;99.90;;;;;;2089183;28;19971;-73
2024/04/01 05:25:00;;;;;;;;;;;13.20;99.90;;;;;;2088452;28;20338;-72
2024/04/01 05:26:01;;;;;;;;;;;13.20;99.90;;;;;;2100078;28;19916;-74
2024/04/01 05:27:01;;;;;;;;;;;13.20;99.90;;;;;;2098759;28;20338;-74
2024/04/01 05:28:02;;;;;;;;;;;13.20;99.90;;;;;;2087808;28;19974;-73
2024/04/01 05:29:02;;;;;;;;;;;13.20;99.90;;;;;;2090727;28;19916;-74
2024/04/01 05:30:04;;;;;;;;;;;13.30;99.90;;;;;;2097214;28;19912;-72
2024/04/01 05:31:04;;;;;;;;;;;13.20;99.90;;;;;;2089567;28;20192;-72
2024/04/01 05:32:05;;;;;;;;;;;13.30;99.90;;;;;;2096553;28;19954;-72
2024/04/01 05:33:05;;;;;;;;;;;13.30;99.90;;;;;;2096862;28;20011;-73
2024/04/01 05:34:07;;;;;;;;;;;13.40;99.90;;;;;;2090853;28;20383;-74
2024/04/01 05:35:10;;;;;;;;;;;13.40;99.90;;;;;;2081176;28;20336;-72
2024/04/01 05:36:10;;;;;;;;;;;13.40;99.90;;;;;;2088086;28;19912;-72
2024/04/01 05:37:11;;;;;;;;;;;13.50;99.90;;;;;;2101204;28;19923;-73
2024/04/01 05:38:11;;;;;;;;;;;13.40;99.90;;;;;;2101190;28;20321;-73
2024/04/01 05:39:12;;;;;;;;;;;13.50;99.90;;;;;;2096722;28;20042;-73
2024/04/01 05:40:12;;;;;;;;;;;13.50;99.90;;;;;;2094807;28;19916;-73
2024/04/01 05:41:13;;;;;;;;;;;13.50;99.90;;;;;;2099072;28;19916;-76
2024/04/01 05:42:14;;;;;;;;;;;13.50;99.90;;;;;;2097012;28;19916;-73
2024/04/01 05:43:14;;;;;;;;;;;13.50;99.90;;;;;;2098398;28;19950;-74
2024/04/01 05:44:15;;;;;;;;;;;13.50;99.90;;;;;;2099382;28;19916;-73
2024/04/01 05:45:15;;;;;;;;;;;13.50;99.90;;;;;;2087759;28;19917;-73
2024/04/01 05:46:16;;;;;;;;;;;13.50;99.90;;;;;;2089444;28;20393;-74
2024/04/01 05:47:17;;;;;;;;;;;13.50;99.90;;;;;;2099500;28;19974;-72
2024/04/01 05:48:17;;;;;;;;;;;13.50;99.90;;;;;;2087855;28;20410;-74
2024/04/01 05:49:18;;;;;;;;;;;13.50;99.90;;;;;;2086892;28;19920;-72
2024/04/01 05:50:18;;;;;;;;;;;13.50;99.90;;;;;;2097234;28;19912;-72
2024/04/01 05:51:19;;;;;;;;;;;13.40;99.90;;;;;;2098974;28;19923;-73
2024/04/01 05:52:19;;;;;;;;;;;13.50;99.90;;;;;;2099186;28;19916;-75
2024/04/01 05:53:22;;;;;;;;;;;13.40;99.90;;;;;;2087911;28;19909;-73